sensor_id;sensor_type;location;lat;lon;timestamp;P1;durP1;ratioP1;P2;durP2;ratioP2
483;SDS011;228;48.922;12.198;2023-10-19T04:00:58;25.53;;;19.70;;
483;SDS011;228;48.922;12.198;2023-10-19T04:03:30;27.23;;;20.47;;
483;SDS011;228;48.922;12.198;2023-10-19T04:05:57;25.90;;;20.13;;
483;SDS011;228;48.922;12.198;2023-10-19T04:08:28;25.93;;;20.13;;
483;SDS011;228;48.922;12.198;2023-10-19T04:10:56;30.23;;;20.67;;
483;SDS011;228;48.922;12.198;2023-10-19T04:13:42;24.07;;;18.93;;
483;SDS011;228;48.922;12.198;2023-10-19T04:16:08;24.63;;;20.30;;
483;SDS011;228;48.922;12.198;2023-10-19T04:18:35;26.00;;;20.00;;
483;SDS011;228;48.922;12.198;2023-10-19T04:21:08;27.47;;;21.00;;
483;SDS011;228;48.922;12.198;2023-10-19T04:23:34;29.23;;;21.60;;
483;SDS011;228;48.922;12.198;2023-10-19T04:26:02;30.10;;;21.80;;
483;SDS011;228;48.922;12.198;2023-10-19T04:28:36;31.50;;;23.23;;
483;SDS011;228;48.922;12.198;2023-10-19T04:31:18;29.77;;;21.07;;
483;SDS011;228;48.922;12.198;2023-10-19T04:33:45;29.40;;;22.17;;
483;SDS011;228;48.922;12.198;2023-10-19T04:36:12;31.03;;;22.27;;
483;SDS011;228;48.922;12.198;2023-10-19T04:38:39;29.40;;;21.37;;
483;SDS011;228;48.922;12.198;2023-10-19T04:41:08;29.60;;;21.73;;
483;SDS011;228;48.922;12.198;2023-10-19T04:43:37;28.30;;;21.27;;
483;SDS011;228;48.922;12.198;2023-10-19T04:46:08;28.47;;;22.07;;
483;SDS011;228;48.922;12.198;2023-10-19T04:48:39;27.23;;;20.80;;
483;SDS011;228;48.922;12.198;2023-10-19T04:51:08;30.53;;;22.13;;
483;SDS011;228;48.922;12.198;2023-10-19T04:53:36;29.97;;;22.43;;
483;SDS011;228;48.922;12.198;2023-10-19T04:56:03;27.50;;;21.47;;
483;SDS011;228;48.922;12.198;2023-10-19T04:58:34;28.83;;;22.40;;
483;SDS011;228;48.922;12.198;2023-10-19T05:01:00;34.87;;;23.23;;
483;SDS011;228;48.922;12.198;2023-10-19T05:03:29;47.77;;;30.23;;
483;SDS011;228;48.922;12.198;2023-10-19T05:05:55;43.10;;;27.90;;
483;SDS011;228;48.922;12.198;2023-10-19T05:08:24;41.80;;;26.97;;
483;SDS011;228;48.922;12.198;2023-10-19T05:10:56;34.70;;;24.17;;
483;SDS011;228;48.922;12.198;2023-10-19T05:13:27;27.50;;;22.23;;
483;SDS011;228;48.922;12.198;2023-10-19T05:15:54;27.37;;;22.00;;
483;SDS011;228;48.922;12.198;2023-10-19T05:18:21;26.17;;;19.93;;
483;SDS011;228;48.922;12.198;2023-10-19T05:20:47;26.23;;;20.70;;
483;SDS011;228;48.922;12.198;2023-10-19T05:23:15;30.97;;;23.20;;
483;SDS011;228;48.922;12.198;2023-10-19T05:25:43;28.23;;;22.37;;
483;SDS011;228;48.922;12.198;2023-10-19T05:28:09;29.53;;;22.47;;
483;SDS011;228;48.922;12.198;2023-10-19T05:30:35;28.50;;;21.83;;
483;SDS011;228;48.922;12.198;2023-10-19T05:33:02;29.37;;;21.07;;
483;SDS011;228;48.922;12.198;2023-10-19T05:35:28;25.97;;;21.07;;
483;SDS011;228;48.922;12.198;2023-10-19T05:37:55;28.03;;;21.03;;
483;SDS011;228;48.922;12.198;2023-10-19T05:40:23;28.17;;;20.97;;
483;SDS011;228;48.922;12.198;2023-10-19T05:42:55;28.40;;;21.07;;
483;SDS011;228;48.922;12.198;2023-10-19T05:45:23;28.87;;;21.60;;
483;SDS011;228;48.922;12.198;2023-10-19T05:47:50;28.73;;;22.87;;
483;SDS011;228;48.922;12.198;2023-10-19T05:50:16;29.13;;;22.47;;
483;SDS011;228;48.922;12.198;2023-10-19T05:52:43;27.83;;;22.13;;
483;SDS011;228;48.922;12.198;2023-10-19T05:55:09;29.43;;;22.77;;
483;SDS011;228;48.922;12.198;2023-10-19T05:57:38;27.80;;;22.17;;
483;SDS011;228;48.922;12.198;2023-10-19T06:00:11;28.40;;;21.87;;
483;SDS011;228;48.922;12.198;2023-10-19T06:02:42;25.77;;;21.37;;
483;SDS011;228;48.922;12.198;2023-10-19T06:05:09;30.07;;;21.27;;
483;SDS011;228;48.922;12.198;2023-10-19T06:07:46;29.87;;;22.40;;
483;SDS011;228;48.922;12.198;2023-10-19T06:10:13;29.80;;;22.17;;
483;SDS011;228;48.922;12.198;2023-10-19T06:12:41;27.33;;;21.33;;
483;SDS011;228;48.922;12.198;2023-10-19T06:15:10;31.03;;;21.63;;
483;SDS011;228;48.922;12.198;2023-10-19T06:17:38;24.67;;;19.60;;
483;SDS011;228;48.922;12.198;2023-10-19T06:20:08;26.40;;;20.37;;
483;SDS011;228;48.922;12.198;2023-10-19T06:22:54;25.50;;;19.73;;
483;SDS011;228;48.922;12.198;2023-10-19T06:25:29;25.07;;;20.40;;
483;SDS011;228;48.922;12.198;2023-10-19T06:27:56;24.10;;;19.57;;
483;SDS011;228;48.922;12.198;2023-10-19T06:30:22;25.43;;;20.73;;
483;SDS011;228;48.922;12.198;2023-10-19T06:35:17;24.43;;;19.93;;
483;SDS011;228;48.922;12.198;2023-10-19T06:37:43;24.23;;;19.20;;
483;SDS011;228;48.922;12.198;2023-10-19T06:40:10;26.17;;;20.47;;
483;SDS011;228;48.922;12.198;2023-10-19T06:42:38;27.93;;;19.90;;
483;SDS011;228;48.922;12.198;2023-10-19T06:45:04;26.07;;;20.70;;
483;SDS011;228;48.922;12.198;2023-10-19T06:47:32;24.93;;;19.97;;
483;SDS011;228;48.922;12.198;2023-10-19T06:50:03;29.90;;;19.73;;
483;SDS011;228;48.922;12.198;2023-10-19T06:52:32;23.90;;;18.33;;
483;SDS011;228;48.922;12.198;2023-10-19T06:55:01;24.27;;;19.63;;
483;SDS011;228;48.922;12.198;2023-10-19T06:57:41;22.57;;;18.77;;
483;SDS011;228;48.922;12.198;2023-10-19T07:00:09;23.37;;;19.10;;
483;SDS011;228;48.922;12.198;2023-10-19T07:02:51;23.30;;;18.97;;
483;SDS011;228;48.922;12.198;2023-10-19T07:05:17;21.33;;;18.17;;
483;SDS011;228;48.922;12.198;2023-10-19T07:07:47;23.30;;;18.83;;
483;SDS011;228;48.922;12.198;2023-10-19T07:10:15;22.60;;;18.50;;
483;SDS011;228;48.922;12.198;2023-10-19T07:12:43;24.83;;;19.07;;
483;SDS011;228;48.922;12.198;2023-10-19T07:15:12;22.50;;;18.47;;
483;SDS011;228;48.922;12.198;2023-10-19T07:17:44;23.13;;;18.80;;
483;SDS011;228;48.922;12.198;2023-10-19T07:20:12;25.77;;;18.53;;
483;SDS011;228;48.922;12.198;2023-10-19T07:22:59;21.70;;;17.63;;
483;SDS011;228;48.922;12.198;2023-10-19T07:25:33;20.87;;;17.50;;
483;SDS011;228;48.922;12.198;2023-10-19T07:28:08;21.60;;;18.03;;
483;SDS011;228;48.922;12.198;2023-10-19T07:30:35;21.47;;;17.93;;
483;SDS011;228;48.922;12.198;2023-10-19T07:33:02;22.83;;;17.53;;
483;SDS011;228;48.922;12.198;2023-10-19T07:35:33;21.47;;;17.57;;
483;SDS011;228;48.922;12.198;2023-10-19T07:38:03;22.20;;;17.93;;
483;SDS011;228;48.922;12.198;2023-10-19T07:40:29;23.20;;;18.50;;
483;SDS011;228;48.922;12.198;2023-10-19T07:42:56;21.93;;;18.07;;
483;SDS011;228;48.922;12.198;2023-10-19T07:45:22;22.47;;;18.27;;
483;SDS011;228;48.922;12.198;2023-10-19T07:47:48;22.37;;;18.03;;
483;SDS011;228;48.922;12.198;2023-10-19T07:50:14;21.50;;;18.27;;
483;SDS011;228;48.922;12.198;2023-10-19T07:52:44;22.30;;;18.30;;
483;SDS011;228;48.922;12.198;2023-10-19T07:55:17;21.33;;;18.07;;
483;SDS011;228;48.922;12.198;2023-10-19T07:57:44;22.77;;;18.30;;
483;SDS011;228;48.922;12.198;2023-10-19T08:00:11;22.07;;;17.57;;
483;SDS011;228;48.922;12.198;2023-10-19T08:02:40;22.20;;;17.33;;
483;SDS011;228;48.922;12.198;2023-10-19T08:05:13;19.03;;;16.20;;
483;SDS011;228;48.922;12.198;2023-10-19T08:07:39;22.87;;;18.30;;
483;SDS011;228;48.922;12.198;2023-10-19T08:10:11;22.43;;;17.93;;
483;SDS011;228;48.922;12.198;2023-10-19T08:12:38;22.40;;;17.67;;
483;SDS011;228;48.922;12.198;2023-10-19T08:15:08;20.27;;;16.93;;
483;SDS011;228;48.922;12.198;2023-10-19T08:17:47;19.13;;;16.30;;
483;SDS011;228;48.922;12.198;2023-10-19T08:20:15;20.60;;;17.87;;
483;SDS011;228;48.922;12.198;2023-10-19T08:22:42;20.50;;;17.30;;
483;SDS011;228;48.922;12.198;2023-10-19T08:25:11;20.03;;;17.17;;
483;SDS011;228;48.922;12.198;2023-10-19T08:27:43;18.53;;;16.53;;
483;SDS011;228;48.922;12.198;2023-10-19T08:30:14;22.93;;;18.30;;
483;SDS011;228;48.922;12.198;2023-10-19T08:32:43;22.93;;;16.87;;
483;SDS011;228;48.922;12.198;2023-10-19T08:35:13;19.87;;;16.60;;
483;SDS011;228;48.922;12.198;2023-10-19T08:37:40;32.33;;;17.67;;
483;SDS011;228;48.922;12.198;2023-10-19T08:40:07;22.17;;;17.73;;
483;SDS011;228;48.922;12.198;2023-10-19T08:42:43;18.90;;;16.90;;
483;SDS011;228;48.922;12.198;2023-10-19T08:45:11;18.93;;;15.93;;
483;SDS011;228;48.922;12.198;2023-10-19T08:47:53;20.27;;;16.97;;
483;SDS011;228;48.922;12.198;2023-10-19T08:50:21;17.93;;;16.03;;
483;SDS011;228;48.922;12.198;2023-10-19T08:52:50;19.60;;;16.43;;
483;SDS011;228;48.922;12.198;2023-10-19T08:55:19;19.50;;;17.40;;
483;SDS011;228;48.922;12.198;2023-10-19T08:57:46;20.00;;;16.63;;
483;SDS011;228;48.922;12.198;2023-10-19T09:00:14;19.80;;;16.13;;
483;SDS011;228;48.922;12.198;2023-10-19T09:02:47;18.07;;;16.17;;
483;SDS011;228;48.922;12.198;2023-10-19T09:05:14;24.53;;;17.17;;
483;SDS011;228;48.922;12.198;2023-10-19T09:07:51;19.50;;;17.50;;
483;SDS011;228;48.922;12.198;2023-10-19T09:13:24;19.13;;;17.17;;
483;SDS011;228;48.922;12.198;2023-10-19T09:15:44;20.53;;;16.90;;
483;SDS011;228;48.922;12.198;2023-10-19T09:18:20;19.70;;;16.97;;
483;SDS011;228;48.922;12.198;2023-10-19T09:20:49;17.93;;;15.50;;
483;SDS011;228;48.922;12.198;2023-10-19T09:23:20;18.93;;;16.93;;
483;SDS011;228;48.922;12.198;2023-10-19T09:25:57;18.77;;;16.70;;
483;SDS011;228;48.922;12.198;2023-10-19T09:28:31;19.07;;;16.20;;
483;SDS011;228;48.922;12.198;2023-10-19T09:30:59;24.03;;;16.00;;
483;SDS011;228;48.922;12.198;2023-10-19T09:33:26;17.53;;;15.73;;
483;SDS011;228;48.922;12.198;2023-10-19T09:35:53;19.30;;;17.20;;
483;SDS011;228;48.922;12.198;2023-10-19T09:38:36;20.43;;;16.70;;
483;SDS011;228;48.922;12.198;2023-10-19T09:41:01;18.67;;;16.77;;
483;SDS011;228;48.922;12.198;2023-10-19T09:43:30;19.20;;;16.87;;
483;SDS011;228;48.922;12.198;2023-10-19T09:46:00;21.40;;;17.37;;
483;SDS011;228;48.922;12.198;2023-10-19T09:48:31;20.47;;;17.20;;
483;SDS011;228;48.922;12.198;2023-10-19T09:51:01;19.47;;;17.17;;
483;SDS011;228;48.922;12.198;2023-10-19T09:53:28;19.40;;;16.80;;
483;SDS011;228;48.922;12.198;2023-10-19T09:55:57;21.07;;;17.70;;
483;SDS011;228;48.922;12.198;2023-10-19T09:58:57;20.50;;;16.60;;
483;SDS011;228;48.922;12.198;2023-10-19T10:01:20;20.43;;;17.87;;
483;SDS011;228;48.922;12.198;2023-10-19T10:09:19;19.33;;;16.97;;
483;SDS011;228;48.922;12.198;2023-10-19T10:11:49;19.53;;;17.40;;
483;SDS011;228;48.922;12.198;2023-10-19T10:14:22;21.07;;;18.07;;
483;SDS011;228;48.922;12.198;2023-10-19T10:17:00;21.63;;;18.27;;
483;SDS011;228;48.922;12.198;2023-10-19T10:19:27;21.50;;;19.17;;
483;SDS011;228;48.922;12.198;2023-10-19T10:22:03;22.13;;;18.87;;
483;SDS011;228;48.922;12.198;2023-10-19T10:24:44;22.00;;;18.87;;
483;SDS011;228;48.922;12.198;2023-10-19T10:27:10;20.90;;;18.57;;
483;SDS011;228;48.922;12.198;2023-10-19T10:29:58;23.67;;;18.63;;
483;SDS011;228;48.922;12.198;2023-10-19T10:35:10;20.83;;;18.03;;
483;SDS011;228;48.922;12.198;2023-10-19T10:37:55;24.20;;;18.50;;
483;SDS011;228;48.922;12.198;2023-10-19T10:40:22;21.23;;;18.00;;
483;SDS011;228;48.922;12.198;2023-10-19T10:42:48;21.57;;;17.97;;
483;SDS011;228;48.922;12.198;2023-10-19T10:45:20;20.53;;;17.73;;
483;SDS011;228;48.922;12.198;2023-10-19T10:47:46;20.77;;;18.37;;
483;SDS011;228;48.922;12.198;2023-10-19T10:50:12;21.93;;;18.70;;
483;SDS011;228;48.922;12.198;2023-10-19T10:52:45;20.83;;;17.63;;
483;SDS011;228;48.922;12.198;2023-10-19T10:55:12;21.67;;;18.33;;
483;SDS011;228;48.922;12.198;2023-10-19T10:57:40;21.30;;;18.83;;
483;SDS011;228;48.922;12.198;2023-10-19T11:00:08;21.50;;;18.37;;
483;SDS011;228;48.922;12.198;2023-10-19T11:02:41;20.73;;;18.37;;
483;SDS011;228;48.922;12.198;2023-10-19T11:05:08;20.77;;;18.50;;
483;SDS011;228;48.922;12.198;2023-10-19T11:07:40;20.67;;;18.50;;
483;SDS011;228;48.922;12.198;2023-10-19T11:10:27;24.03;;;19.83;;
483;SDS011;228;48.922;12.198;2023-10-19T11:13:02;22.33;;;19.33;;
483;SDS011;228;48.922;12.198;2023-10-19T11:15:29;22.07;;;19.50;;
483;SDS011;228;48.922;12.198;2023-10-19T11:17:55;24.70;;;20.87;;
483;SDS011;228;48.922;12.198;2023-10-19T11:20:23;23.70;;;20.37;;
483;SDS011;228;48.922;12.198;2023-10-19T11:22:50;25.00;;;20.47;;
483;SDS011;228;48.922;12.198;2023-10-19T11:25:21;23.57;;;20.43;;
483;SDS011;228;48.922;12.198;2023-10-19T11:27:49;23.63;;;20.10;;
483;SDS011;228;48.922;12.198;2023-10-19T11:30:25;27.10;;;21.93;;
483;SDS011;228;48.922;12.198;2023-10-19T11:32:53;34.30;;;22.53;;
483;SDS011;228;48.922;12.198;2023-10-19T11:35:23;27.03;;;23.33;;
483;SDS011;228;48.922;12.198;2023-10-19T11:37:54;23.57;;;20.37;;
483;SDS011;228;48.922;12.198;2023-10-19T11:40:21;24.40;;;20.10;;
483;SDS011;228;48.922;12.198;2023-10-19T11:42:48;28.33;;;22.93;;
483;SDS011;228;48.922;12.198;2023-10-19T11:45:14;25.73;;;21.67;;
483;SDS011;228;48.922;12.198;2023-10-19T11:47:42;27.60;;;23.30;;
483;SDS011;228;48.922;12.198;2023-10-19T11:50:10;27.30;;;23.00;;
483;SDS011;228;48.922;12.198;2023-10-19T11:52:39;27.30;;;23.07;;
483;SDS011;228;48.922;12.198;2023-10-19T11:55:09;25.80;;;22.57;;
483;SDS011;228;48.922;12.198;2023-10-19T11:57:36;26.10;;;21.33;;
483;SDS011;228;48.922;12.198;2023-10-19T12:00:03;27.30;;;21.90;;
483;SDS011;228;48.922;12.198;2023-10-19T12:02:36;26.23;;;22.37;;
483;SDS011;228;48.922;12.198;2023-10-19T12:05:03;26.53;;;21.57;;
483;SDS011;228;48.922;12.198;2023-10-19T12:07:34;27.67;;;21.43;;
483;SDS011;228;48.922;12.198;2023-10-19T12:10:01;24.47;;;21.80;;
483;SDS011;228;48.922;12.198;2023-10-19T12:12:28;23.90;;;20.47;;
483;SDS011;228;48.922;12.198;2023-10-19T12:14:54;23.20;;;20.20;;
483;SDS011;228;48.922;12.198;2023-10-19T12:17:20;23.73;;;20.33;;
483;SDS011;228;48.922;12.198;2023-10-19T12:19:47;23.07;;;20.57;;
483;SDS011;228;48.922;12.198;2023-10-19T12:22:13;21.90;;;19.60;;
483;SDS011;228;48.922;12.198;2023-10-19T12:24:39;22.90;;;20.10;;
483;SDS011;228;48.922;12.198;2023-10-19T12:27:06;21.83;;;18.77;;
483;SDS011;228;48.922;12.198;2023-10-19T12:29:33;22.70;;;19.30;;
483;SDS011;228;48.922;12.198;2023-10-19T12:31:59;23.63;;;20.97;;
483;SDS011;228;48.922;12.198;2023-10-19T12:34:26;25.10;;;19.63;;
483;SDS011;228;48.922;12.198;2023-10-19T12:36:55;22.70;;;20.20;;
483;SDS011;228;48.922;12.198;2023-10-19T12:39:25;22.40;;;20.00;;
483;SDS011;228;48.922;12.198;2023-10-19T12:42:10;24.00;;;19.70;;
483;SDS011;228;48.922;12.198;2023-10-19T12:44:36;21.40;;;19.10;;
483;SDS011;228;48.922;12.198;2023-10-19T12:47:10;22.13;;;19.73;;
483;SDS011;228;48.922;12.198;2023-10-19T12:49:40;22.27;;;19.80;;
483;SDS011;228;48.922;12.198;2023-10-19T12:52:07;20.60;;;18.40;;
483;SDS011;228;48.922;12.198;2023-10-19T12:54:37;21.10;;;18.90;;
483;SDS011;228;48.922;12.198;2023-10-19T12:57:04;21.33;;;19.03;;
483;SDS011;228;48.922;12.198;2023-10-19T12:59:33;22.43;;;19.93;;
483;SDS011;228;48.922;12.198;2023-10-19T13:01:59;21.97;;;18.97;;
483;SDS011;228;48.922;12.198;2023-10-19T13:04:28;21.57;;;19.17;;
483;SDS011;228;48.922;12.198;2023-10-19T13:06:56;22.97;;;20.60;;
483;SDS011;228;48.922;12.198;2023-10-19T13:09:24;24.67;;;20.30;;
483;SDS011;228;48.922;12.198;2023-10-19T13:12:02;22.23;;;19.77;;
483;SDS011;228;48.922;12.198;2023-10-19T13:14:32;22.20;;;19.90;;
483;SDS011;228;48.922;12.198;2023-10-19T13:16:59;23.07;;;20.30;;
483;SDS011;228;48.922;12.198;2023-10-19T13:19:26;22.33;;;20.00;;
483;SDS011;228;48.922;12.198;2023-10-19T13:21:52;22.73;;;20.43;;
483;SDS011;228;48.922;12.198;2023-10-19T13:24:19;23.07;;;20.53;;
483;SDS011;228;48.922;12.198;2023-10-19T13:26:46;23.13;;;20.23;;
483;SDS011;228;48.922;12.198;2023-10-19T13:29:13;24.03;;;20.60;;
483;SDS011;228;48.922;12.198;2023-10-19T13:31:42;24.63;;;21.17;;
483;SDS011;228;48.922;12.198;2023-10-19T13:34:15;24.00;;;21.37;;
483;SDS011;228;48.922;12.198;2023-10-19T13:36:42;26.83;;;22.00;;
483;SDS011;228;48.922;12.198;2023-10-19T13:39:11;25.67;;;22.10;;
483;SDS011;228;48.922;12.198;2023-10-19T13:41:42;26.70;;;22.43;;
483;SDS011;228;48.922;12.198;2023-10-19T13:44:09;24.83;;;21.47;;
483;SDS011;228;48.922;12.198;2023-10-19T13:46:37;24.30;;;21.67;;
483;SDS011;228;48.922;12.198;2023-10-19T13:49:03;25.37;;;22.60;;
483;SDS011;228;48.922;12.198;2023-10-19T13:51:31;23.87;;;21.37;;
483;SDS011;228;48.922;12.198;2023-10-19T13:53:57;23.40;;;20.90;;
483;SDS011;228;48.922;12.198;2023-10-19T13:56:23;22.87;;;20.00;;
483;SDS011;228;48.922;12.198;2023-10-19T13:58:51;24.30;;;21.70;;
483;SDS011;228;48.922;12.198;2023-10-19T14:01:17;23.20;;;20.70;;
483;SDS011;228;48.922;12.198;2023-10-19T14:03:44;23.50;;;20.23;;
483;SDS011;228;48.922;12.198;2023-10-19T14:06:13;27.23;;;22.53;;
483;SDS011;228;48.922;12.198;2023-10-19T14:08:40;23.87;;;20.47;;
483;SDS011;228;48.922;12.198;2023-10-19T14:11:06;23.20;;;20.70;;
483;SDS011;228;48.922;12.198;2023-10-19T14:13:33;22.70;;;20.10;;
483;SDS011;228;48.922;12.198;2023-10-19T14:16:04;22.73;;;19.60;;
483;SDS011;228;48.922;12.198;2023-10-19T14:18:30;24.27;;;20.27;;
483;SDS011;228;48.922;12.198;2023-10-19T14:20:58;23.67;;;20.10;;
483;SDS011;228;48.922;12.198;2023-10-19T14:23:25;24.40;;;20.03;;
483;SDS011;228;48.922;12.198;2023-10-19T14:25:52;24.30;;;21.70;;
483;SDS011;228;48.922;12.198;2023-10-19T14:28:18;26.77;;;22.87;;
483;SDS011;228;48.922;12.198;2023-10-19T14:30:45;26.93;;;23.53;;
483;SDS011;228;48.922;12.198;2023-10-19T14:33:11;26.07;;;22.50;;
483;SDS011;228;48.922;12.198;2023-10-19T14:35:37;24.67;;;21.70;;
483;SDS011;228;48.922;12.198;2023-10-19T14:38:07;25.20;;;20.23;;
483;SDS011;228;48.922;12.198;2023-10-19T14:40:34;25.00;;;20.93;;
483;SDS011;228;48.922;12.198;2023-10-19T14:43:01;24.57;;;21.23;;
483;SDS011;228;48.922;12.198;2023-10-19T14:45:29;25.47;;;21.23;;
483;SDS011;228;48.922;12.198;2023-10-19T14:47:56;25.60;;;20.83;;
483;SDS011;228;48.922;12.198;2023-10-19T14:50:28;25.50;;;21.40;;
483;SDS011;228;48.922;12.198;2023-10-19T14:52:55;24.53;;;21.73;;
483;SDS011;228;48.922;12.198;2023-10-19T14:55:21;24.20;;;21.53;;
483;SDS011;228;48.922;12.198;2023-10-19T14:57:48;24.70;;;21.63;;
483;SDS011;228;48.922;12.198;2023-10-19T15:00:16;24.97;;;22.07;;
483;SDS011;228;48.922;12.198;2023-10-19T15:03:00;24.57;;;21.83;;
483;SDS011;228;48.922;12.198;2023-10-19T15:05:30;22.97;;;20.47;;
483;SDS011;228;48.922;12.198;2023-10-19T15:08:00;24.30;;;20.87;;
483;SDS011;228;48.922;12.198;2023-10-19T15:10:28;25.93;;;21.53;;
483;SDS011;228;48.922;12.198;2023-10-19T15:12:55;25.60;;;21.97;;
483;SDS011;228;48.922;12.198;2023-10-19T15:15:22;23.97;;;21.23;;
483;SDS011;228;48.922;12.198;2023-10-19T15:17:48;25.00;;;21.67;;
483;SDS011;228;48.922;12.198;2023-10-19T15:20:18;28.47;;;23.57;;
483;SDS011;228;48.922;12.198;2023-10-19T15:22:46;25.70;;;21.27;;
483;SDS011;228;48.922;12.198;2023-10-19T15:25:12;22.90;;;20.50;;
483;SDS011;228;48.922;12.198;2023-10-19T15:27:43;25.60;;;20.60;;
483;SDS011;228;48.922;12.198;2023-10-19T15:30:10;26.30;;;22.07;;
483;SDS011;228;48.922;12.198;2023-10-19T15:32:40;27.17;;;22.23;;
483;SDS011;228;48.922;12.198;2023-10-19T15:35:09;25.87;;;22.03;;
483;SDS011;228;48.922;12.198;2023-10-19T15:37:39;27.97;;;23.17;;
483;SDS011;228;48.922;12.198;2023-10-19T15:40:07;27.63;;;23.00;;
483;SDS011;228;48.922;12.198;2023-10-19T15:42:33;27.10;;;23.20;;
483;SDS011;228;48.922;12.198;2023-10-19T15:45:01;27.87;;;24.87;;
483;SDS011;228;48.922;12.198;2023-10-19T15:47:28;29.67;;;24.00;;
483;SDS011;228;48.922;12.198;2023-10-19T15:49:55;28.10;;;23.90;;
483;SDS011;228;48.922;12.198;2023-10-19T15:52:25;31.90;;;24.93;;
483;SDS011;228;48.922;12.198;2023-10-19T15:54:53;33.67;;;24.07;;
483;SDS011;228;48.922;12.198;2023-10-19T15:57:20;29.40;;;25.10;;
483;SDS011;228;48.922;12.198;2023-10-19T15:59:46;29.77;;;24.57;;
483;SDS011;228;48.922;12.198;2023-10-19T16:02:13;26.77;;;22.53;;
483;SDS011;228;48.922;12.198;2023-10-19T16:04:44;27.23;;;23.37;;
483;SDS011;228;48.922;12.198;2023-10-19T16:07:11;28.57;;;24.87;;
483;SDS011;228;48.922;12.198;2023-10-19T16:09:38;30.20;;;24.67;;
483;SDS011;228;48.922;12.198;2023-10-19T16:12:05;31.40;;;26.70;;
483;SDS011;228;48.922;12.198;2023-10-19T16:14:33;33.60;;;26.63;;
483;SDS011;228;48.922;12.198;2023-10-19T16:17:00;31.67;;;26.57;;
483;SDS011;228;48.922;12.198;2023-10-19T16:19:27;31.40;;;25.13;;
483;SDS011;228;48.922;12.198;2023-10-19T16:21:55;33.17;;;26.63;;
483;SDS011;228;48.922;12.198;2023-10-19T16:24:22;32.17;;;26.73;;
483;SDS011;228;48.922;12.198;2023-10-19T16:26:50;36.00;;;28.93;;
483;SDS011;228;48.922;12.198;2023-10-19T16:29:17;34.33;;;27.50;;
483;SDS011;228;48.922;12.198;2023-10-19T16:31:45;33.17;;;27.00;;
483;SDS011;228;48.922;12.198;2023-10-19T16:34:13;31.57;;;26.37;;
483;SDS011;228;48.922;12.198;2023-10-19T16:36:40;40.03;;;31.60;;
483;SDS011;228;48.922;12.198;2023-10-19T16:39:08;36.67;;;30.20;;
483;SDS011;228;48.922;12.198;2023-10-19T16:41:38;34.57;;;28.07;;
483;SDS011;228;48.922;12.198;2023-10-19T16:44:06;35.40;;;28.60;;
483;SDS011;228;48.922;12.198;2023-10-19T16:46:32;31.07;;;26.90;;
483;SDS011;228;48.922;12.198;2023-10-19T16:48:59;31.93;;;26.97;;
483;SDS011;228;48.922;12.198;2023-10-19T16:51:27;34.33;;;27.97;;
483;SDS011;228;48.922;12.198;2023-10-19T16:53:54;31.83;;;26.80;;
483;SDS011;228;48.922;12.198;2023-10-19T16:56:22;33.63;;;28.30;;
483;SDS011;228;48.922;12.198;2023-10-19T16:58:48;34.50;;;26.80;;
483;SDS011;228;48.922;12.198;2023-10-19T17:01:16;34.00;;;27.60;;
483;SDS011;228;48.922;12.198;2023-10-19T17:03:42;33.00;;;27.23;;
483;SDS011;228;48.922;12.198;2023-10-19T17:06:12;35.03;;;26.97;;
483;SDS011;228;48.922;12.198;2023-10-19T17:08:40;32.87;;;26.73;;
483;SDS011;228;48.922;12.198;2023-10-19T17:11:06;35.50;;;28.90;;
483;SDS011;228;48.922;12.198;2023-10-19T17:13:33;42.27;;;32.80;;
483;SDS011;228;48.922;12.198;2023-10-19T17:16:00;52.27;;;37.83;;
483;SDS011;228;48.922;12.198;2023-10-19T17:18:26;52.10;;;36.83;;
483;SDS011;228;48.922;12.198;2023-10-19T17:20:53;44.17;;;35.10;;
483;SDS011;228;48.922;12.198;2023-10-19T17:23:19;45.27;;;33.90;;
483;SDS011;228;48.922;12.198;2023-10-19T17:25:46;42.90;;;33.13;;
483;SDS011;228;48.922;12.198;2023-10-19T17:28:12;45.00;;;35.77;;
483;SDS011;228;48.922;12.198;2023-10-19T17:30:38;45.07;;;33.73;;
483;SDS011;228;48.922;12.198;2023-10-19T17:33:05;41.00;;;33.33;;
483;SDS011;228;48.922;12.198;2023-10-19T17:35:33;49.70;;;37.67;;
483;SDS011;228;48.922;12.198;2023-10-19T17:38:01;46.77;;;37.17;;
483;SDS011;228;48.922;12.198;2023-10-19T17:40:27;37.47;;;32.10;;
483;SDS011;228;48.922;12.198;2023-10-19T17:42:54;41.50;;;31.57;;
483;SDS011;228;48.922;12.198;2023-10-19T17:45:20;48.57;;;38.37;;
483;SDS011;228;48.922;12.198;2023-10-19T17:47:47;46.90;;;35.93;;
483;SDS011;228;48.922;12.198;2023-10-19T17:50:15;45.77;;;35.80;;
483;SDS011;228;48.922;12.198;2023-10-19T17:52:45;44.93;;;34.50;;
483;SDS011;228;48.922;12.198;2023-10-19T17:55:15;43.00;;;33.83;;
483;SDS011;228;48.922;12.198;2023-10-19T17:57:48;42.03;;;31.77;;
483;SDS011;228;48.922;12.198;2023-10-19T18:00:16;41.70;;;32.53;;
483;SDS011;228;48.922;12.198;2023-10-19T18:02:44;39.53;;;32.57;;
483;SDS011;228;48.922;12.198;2023-10-19T18:05:10;46.57;;;34.23;;
483;SDS011;228;48.922;12.198;2023-10-19T18:07:37;43.57;;;34.43;;
483;SDS011;228;48.922;12.198;2023-10-19T18:10:04;43.13;;;34.43;;
483;SDS011;228;48.922;12.198;2023-10-19T18:12:31;46.43;;;36.13;;
483;SDS011;228;48.922;12.198;2023-10-19T18:15:01;47.13;;;35.97;;
483;SDS011;228;48.922;12.198;2023-10-19T18:17:36;45.47;;;36.70;;
483;SDS011;228;48.922;12.198;2023-10-19T18:20:03;50.33;;;37.93;;
483;SDS011;228;48.922;12.198;2023-10-19T18:22:45;45.27;;;33.60;;
483;SDS011;228;48.922;12.198;2023-10-19T18:25:14;44.60;;;34.93;;
483;SDS011;228;48.922;12.198;2023-10-19T18:27:45;41.00;;;32.63;;
483;SDS011;228;48.922;12.198;2023-10-19T18:30:12;42.80;;;31.23;;
483;SDS011;228;48.922;12.198;2023-10-19T18:32:38;37.40;;;29.17;;
483;SDS011;228;48.922;12.198;2023-10-19T18:35:06;38.20;;;30.03;;
483;SDS011;228;48.922;12.198;2023-10-19T18:37:33;43.73;;;32.10;;
483;SDS011;228;48.922;12.198;2023-10-19T18:40:00;38.50;;;29.63;;
483;SDS011;228;48.922;12.198;2023-10-19T18:42:27;38.30;;;28.93;;
483;SDS011;228;48.922;12.198;2023-10-19T18:44:55;39.37;;;29.83;;
483;SDS011;228;48.922;12.198;2023-10-19T18:47:24;40.90;;;30.87;;
483;SDS011;228;48.922;12.198;2023-10-19T18:49:54;42.47;;;31.30;;
483;SDS011;228;48.922;12.198;2023-10-19T18:52:21;39.87;;;30.83;;
483;SDS011;228;48.922;12.198;2023-10-19T18:54:48;40.27;;;31.03;;
483;SDS011;228;48.922;12.198;2023-10-19T18:57:14;39.33;;;31.40;;
483;SDS011;228;48.922;12.198;2023-10-19T18:59:40;45.27;;;32.17;;
483;SDS011;228;48.922;12.198;2023-10-19T19:02:07;38.53;;;30.20;;
483;SDS011;228;48.922;12.198;2023-10-19T19:04:34;38.33;;;29.47;;
483;SDS011;228;48.922;12.198;2023-10-19T19:07:01;39.40;;;29.70;;
483;SDS011;228;48.922;12.198;2023-10-19T19:09:27;40.77;;;31.83;;
483;SDS011;228;48.922;12.198;2023-10-19T19:11:55;42.10;;;32.67;;
483;SDS011;228;48.922;12.198;2023-10-19T19:14:21;48.83;;;35.83;;
483;SDS011;228;48.922;12.198;2023-10-19T19:16:47;49.63;;;35.70;;
483;SDS011;228;48.922;12.198;2023-10-19T19:19:14;49.63;;;36.37;;
483;SDS011;228;48.922;12.198;2023-10-19T19:21:40;47.53;;;34.97;;
483;SDS011;228;48.922;12.198;2023-10-19T19:24:08;45.63;;;34.17;;